FYKT/KMP METAR and TAF weather

Enter ICAO airport designator
Station Type Date Time Source
FYKT METAR 2021/04/18 03:00 UTC NOAA

FYKT 180300Z 36011KT CAVOK 20/08 Q1023


Station Type Date Time Source
FYKT Decoded METAR 2021/04/18 03:00 UTC NOAA

Keetmanshoop, Namibia (FYKT) 26-32S 018-07E 1100M
Apr 17, 2021 - 11:00 PM EDT / 2021.04.18 0300 UTC
Wind: from the N (360 degrees) at 13 MPH (11 KT):0
Visibility: greater than 7 mile(s):0
Temperature: 68 F (20 C)
Dew Point: 46 F (8 C)
Relative Humidity: 45%
Pressure (altimeter): 30.21 in. Hg (1023 hPa)
ob: FYKT 180300Z 36011KT CAVOK 20/08 Q1023
cycle: 3

Station Type Date Time Source
FYKT TAF 2021/04/17 18:59 UTC NOAA

TAF FYKT 171600Z 1718/1818 06010KT CAVOK

Example: see airport list